Time,TemperatureF,DewpointF,PressureIn,WindDirection,WindDirectionDegrees,WindSpeedMPH,WindSpeedGustMPH,Humidity,HourlyPrecipIn,Conditions,Clouds,dailyrainin,SoftwareType,DateUTC
2013-01-03 00:02:00,10.3,0.6,30.15,NW,319,0.0,2.0,64,0.00,,,0.00,WUHU216DAVISWMX,2013-01-03 05:02:00,
2013-01-03 00:07:00,10.2,0.5,30.15,NW,319,0.0,2.0,64,0.00,,,0.00,WUHU216DAVISWMX,2013-01-03 05:07:00,
2013-01-03 00:12:00,9.8,0.1,30.15,NW,319,0.0,0.0,64,0.00,,,0.00,WUHU216DAVISWMX,2013-01-03 05:12:00,
2013-01-03 00:17:00,9.6,-0.1,30.15,NW,319,0.0,0.0,64,0.00,,,0.00,WUHU216DAVISWMX,2013-01-03 05:17:00,
2013-01-03 00:22:00,9.5,-0.2,30.15,NW,319,0.0,0.0,64,0.00,,,0.00,WUHU216DAVISWMX,2013-01-03 05:22:00,
2013-01-03 00:28:00,9.2,-0.1,30.16,South,187,2.0,5.0,65,0.00,,,0.00,WUHU216DAVISWMX,2013-01-03 05:28:00,
2013-01-03 00:33:00,9.1,-0.6,30.16,NNW,329,3.0,7.0,64,0.00,,,0.00,WUHU216DAVISWMX,2013-01-03 05:33:00,
2013-01-03 00:38:00,9.1,-1.2,30.16,NNW,331,1.0,7.0,62,0.00,,,0.00,WUHU216DAVISWMX,2013-01-03 05:38:00,
2013-01-03 00:43:00,9.2,-1.1,30.16,NNW,331,2.0,4.0,62,0.00,,,0.00,WUHU216DAVISWMX,2013-01-03 05:43:00,
2013-01-03 00:48:00,8.8,-1.5,30.16,NNW,331,1.0,4.0,62,0.00,,,0.00,WUHU216DAVISWMX,2013-01-03 05:48:00,
2013-01-03 00:53:00,8.7,-1.3,30.16,NNW,331,1.0,3.0,63,0.00,,,0.00,WUHU216DAVISWMX,2013-01-03 05:53:00,
2013-01-03 00:58:00,8.6,-1.4,30.17,NNW,331,1.0,2.0,63,0.00,,,0.00,WUHU216DAVISWMX,2013-01-03 05:58:00,
2013-01-03 01:03:00,8.6,-1.0,30.17,NNW,331,0.0,2.0,64,0.00,,,0.00,WUHU216DAVISWMX,2013-01-03 06:03:00,
2013-01-03 01:08:00,8.5,-1.1,30.17,NNW,331,0.0,1.0,64,0.00,,,0.00,WUHU216DAVISWMX,2013-01-03 06:08:00,
2013-01-03 01:13:00,8.6,-0.4,30.17,NNW,331,0.0,0.0,66,0.00,,,0.00,WUHU216DAVISWMX,2013-01-03 06:13:00,
2013-01-03 01:18:00,8.4,-1.2,30.17,NNW,331,0.0,0.0,64,0.00,,,0.00,WUHU216DAVISWMX,2013-01-03 06:18:00,
2013-01-03 01:23:00,8.0,-1.9,30.17,NNW,331,0.0,0.0,63,0.00,,,0.00,WUHU216DAVISWMX,2013-01-03 06:23:00,
2013-01-03 01:28:00,7.9,-1.4,30.17,NNW,331,0.0,0.0,65,0.00,,,0.00,WUHU216DAVISWMX,2013-01-03 06:28:00,
2013-01-03 01:33:00,7.9,-2.0,30.17,NNW,331,0.0,0.0,63,0.00,,,0.00,WUHU216DAVISWMX,2013-01-03 06:33:00,
2013-01-03 01:38:00,7.7,-1.6,30.18,NNW,331,0.0,0.0,65,0.00,,,0.00,WUHU216DAVISWMX,2013-01-03 06:38:00,
2013-01-03 01:43:00,7.6,-1.7,30.18,NNW,331,0.0,0.0,65,0.00,,,0.00,WUHU216DAVISWMX,2013-01-03 06:43:00,
2013-01-03 01:48:00,7.4,-2.2,30.18,NNW,331,0.0,0.0,64,0.00,,,0.00,WUHU216DAVISWMX,2013-01-03 06:48:00,
2013-01-03 01:53:00,7.3,-2.3,30.18,NNW,331,0.0,0.0,64,0.00,,,0.00,WUHU216DAVISWMX,2013-01-03 06:53:00,
2013-01-03 01:58:00,7.2,-1.7,30.18,NNW,331,0.0,0.0,66,0.00,,,0.00,WUHU216DAVISWMX,2013-01-03 06:58:00,
2013-01-03 02:03:00,7.2,-2.0,30.18,NNW,331,0.0,0.0,65,0.00,,,0.00,WUHU216DAVISWMX,2013-01-03 07:03:00,
2013-01-03 02:08:00,7.1,-2.5,30.18,NNW,331,0.0,0.0,64,0.00,,,0.00,WUHU216DAVISWMX,2013-01-03 07:08:00,
2013-01-03 02:13:00,7.0,-2.6,30.18,NNW,331,2.0,2.0,64,0.00,,,0.00,WUHU216DAVISWMX,2013-01-03 07:13:00,
2013-01-03 02:18:00,6.5,-2.7,30.18,NNW,331,0.0,2.0,65,0.00,,,0.00,WUHU216DAVISWMX,2013-01-03 07:18:00,
2013-01-03 02:23:00,6.6,-2.6,30.18,NNW,331,2.0,2.0,65,0.00,,,0.00,WUHU216DAVISWMX,2013-01-03 07:23:00,
2013-01-03 02:28:00,6.6,-2.6,30.18,NNW,331,1.0,2.0,65,0.00,,,0.00,WUHU216DAVISWMX,2013-01-03 07:28:00,
2013-01-03 02:33:00,6.4,-2.8,30.18,NNW,330,0.0,3.0,65,0.00,,,0.00,WUHU216DAVISWMX,2013-01-03 07:33:00,
2013-01-03 02:38:00,6.5,-2.7,30.18,NNW,331,0.0,3.0,65,0.00,,,0.00,WUHU216DAVISWMX,2013-01-03 07:38:00,
2013-01-03 02:43:00,6.4,-2.8,30.18,NNW,331,1.0,1.0,65,0.00,,,0.00,WUHU216DAVISWMX,2013-01-03 07:43:00,
2013-01-03 02:48:00,6.3,-3.2,30.18,NNW,331,0.0,2.0,64,0.00,,,0.00,WUHU216DAVISWMX,2013-01-03 07:48:00,
2013-01-03 02:53:00,6.4,-2.8,30.18,NNW,330,0.0,2.0,65,0.00,,,0.00,WUHU216DAVISWMX,2013-01-03 07:53:00,
2013-01-03 02:58:00,6.3,-3.2,30.18,NNW,331,0.0,1.0,64,0.00,,,0.00,WUHU216DAVISWMX,2013-01-03 07:58:00,
2013-01-03 03:03:00,6.0,-3.5,30.18,NNW,330,0.0,1.0,64,0.00,,,0.00,WUHU216DAVISWMX,2013-01-03 08:03:00,
2013-01-03 03:08:00,5.9,-3.6,30.18,NNW,331,1.0,2.0,64,0.00,,,0.00,WUHU216DAVISWMX,2013-01-03 08:08:00,
2013-01-03 03:13:00,5.8,-3.7,30.18,NNW,331,0.0,2.0,64,0.00,,,0.00,WUHU216DAVISWMX,2013-01-03 08:13:00,
2013-01-03 03:18:00,5.9,-3.6,30.18,NNW,331,0.0,2.0,64,0.00,,,0.00,WUHU216DAVISWMX,2013-01-03 08:18:00,
2013-01-03 03:23:00,5.9,-3.6,30.18,NNW,331,0.0,2.0,64,0.00,,,0.00,WUHU216DAVISWMX,2013-01-03 08:23:00,
2013-01-03 03:28:00,5.9,-3.9,30.18,NNW,331,1.0,3.0,63,0.00,,,0.00,WUHU216DAVISWMX,2013-01-03 08:28:00,
2013-01-03 03:33:00,5.9,-3.9,30.18,NNW,330,0.0,3.0,63,0.00,,,0.00,WUHU216DAVISWMX,2013-01-03 08:33:00,
2013-01-03 03:38:00,5.8,-4.0,30.18,NNW,331,0.0,1.0,63,0.00,,,0.00,WUHU216DAVISWMX,2013-01-03 08:38:00,
2013-01-03 03:43:00,5.7,-4.1,30.17,NNW,331,0.0,1.0,63,0.00,,,0.00,WUHU216DAVISWMX,2013-01-03 08:43:00,
2013-01-03 03:48:00,5.5,-4.3,30.17,NNW,330,0.0,1.0,63,0.00,,,0.00,WUHU216DAVISWMX,2013-01-03 08:48:00,
2013-01-03 03:53:00,5.3,-4.2,30.17,NNW,331,1.0,2.0,64,0.00,,,0.00,WUHU216DAVISWMX,2013-01-03 08:53:00,
2013-01-03 03:58:00,5.2,-4.0,30.16,NNW,331,0.0,2.0,65,0.00,,,0.00,WUHU216DAVISWMX,2013-01-03 08:58:00,
2013-01-03 04:03:00,5.4,-4.1,30.16,NNW,331,0.0,1.0,64,0.00,,,0.00,WUHU216DAVISWMX,2013-01-03 09:03:00,
2013-01-03 04:08:00,5.5,-4.0,30.16,NNW,331,1.0,1.0,64,0.00,,,0.00,WUHU216DAVISWMX,2013-01-03 09:08:00,
2013-01-03 04:13:00,5.6,-3.9,30.16,NNW,331,1.0,1.0,64,0.00,,,0.00,WUHU216DAVISWMX,2013-01-03 09:13:00,
2013-01-03 04:18:00,5.5,-4.0,30.16,NNW,331,0.0,1.0,64,0.00,,,0.00,WUHU216DAVISWMX,2013-01-03 09:18:00,
2013-01-03 04:23:00,5.3,-3.9,30.16,NNW,331,0.0,1.0,65,0.00,,,0.00,WUHU216DAVISWMX,2013-01-03 09:23:00,
2013-01-03 04:28:00,5.4,-3.8,30.16,NNW,331,0.0,0.0,65,0.00,,,0.00,WUHU216DAVISWMX,2013-01-03 09:28:00,
2013-01-03 04:33:00,5.2,-4.3,30.16,NNW,331,0.0,0.0,64,0.00,,,0.00,WUHU216DAVISWMX,2013-01-03 09:33:00,
2013-01-03 04:38:00,4.9,-4.6,30.17,NNW,331,0.0,0.0,64,0.00,,,0.00,WUHU216DAVISWMX,2013-01-03 09:38:00,
2013-01-03 04:43:00,4.6,-4.9,30.17,NNW,331,0.0,0.0,64,0.00,,,0.00,WUHU216DAVISWMX,2013-01-03 09:43:00,
2013-01-03 04:48:00,4.4,-5.0,30.16,NNW,331,0.0,0.0,64,0.00,,,0.00,WUHU216DAVISWMX,2013-01-03 09:48:00,
2013-01-03 04:53:00,4.0,-5.4,30.16,NNW,331,0.0,0.0,64,0.00,,,0.00,WUHU216DAVISWMX,2013-01-03 09:53:00,
2013-01-03 04:58:00,4.0,-5.4,30.16,NNW,331,0.0,0.0,64,0.00,,,0.00,WUHU216DAVISWMX,2013-01-03 09:58:00,
2013-01-03 05:03:00,3.7,-5.7,30.16,NNW,331,0.0,0.0,64,0.00,,,0.00,WUHU216DAVISWMX,2013-01-03 10:03:00,
2013-01-03 05:08:00,3.4,-6.0,30.16,NNW,331,0.0,0.0,64,0.00,,,0.00,WUHU216DAVISWMX,2013-01-03 10:08:00,
2013-01-03 05:13:00,3.5,-5.6,30.16,NNW,331,0.0,0.0,65,0.00,,,0.00,WUHU216DAVISWMX,2013-01-03 10:13:00,
2013-01-03 05:18:00,3.1,-6.3,30.17,NNW,331,0.0,0.0,64,0.00,,,0.00,WUHU216DAVISWMX,2013-01-03 10:18:00,
2013-01-03 05:23:00,3.2,-5.9,30.17,NNW,331,0.0,0.0,65,0.00,,,0.00,WUHU216DAVISWMX,2013-01-03 10:23:00,
2013-01-03 05:28:00,3.1,-6.0,30.17,NNW,331,0.0,0.0,65,0.00,,,0.00,WUHU216DAVISWMX,2013-01-03 10:28:00,
2013-01-03 05:33:00,2.8,-6.3,30.17,NNW,331,0.0,0.0,65,0.00,,,0.00,WUHU216DAVISWMX,2013-01-03 10:33:00,
2013-01-03 05:38:00,2.7,-6.3,30.17,NNW,331,0.0,0.0,65,0.00,,,0.00,WUHU216DAVISWMX,2013-01-03 10:38:00,
2013-01-03 05:43:00,2.6,-6.4,30.17,NNW,331,0.0,0.0,65,0.00,,,0.00,WUHU216DAVISWMX,2013-01-03 10:43:00,
2013-01-03 05:48:00,2.3,-6.4,30.17,NNW,331,0.0,0.0,66,0.00,,,0.00,WUHU216DAVISWMX,2013-01-03 10:48:00,
2013-01-03 05:53:00,2.2,-6.5,30.17,NNW,331,0.0,0.0,66,0.00,,,0.00,WUHU216DAVISWMX,2013-01-03 10:53:00,
2013-01-03 05:58:00,2.2,-6.5,30.16,NNW,331,0.0,0.0,66,0.00,,,0.00,WUHU216DAVISWMX,2013-01-03 10:58:00,
2013-01-03 06:03:00,2.1,-6.6,30.16,NNW,331,0.0,0.0,66,0.00,,,0.00,WUHU216DAVISWMX,2013-01-03 11:03:00,
2013-01-03 06:08:00,1.9,-6.8,30.17,NNW,331,0.0,0.0,66,0.00,,,0.00,WUHU216DAVISWMX,2013-01-03 11:08:00,
2013-01-03 06:13:00,1.7,-7.0,30.16,NNW,331,0.0,0.0,66,0.00,,,0.00,WUHU216DAVISWMX,2013-01-03 11:13:00,
2013-01-03 06:18:00,1.7,-6.7,30.16,NNW,331,0.0,0.0,67,0.00,,,0.00,WUHU216DAVISWMX,2013-01-03 11:18:00,
2013-01-03 06:23:00,1.6,-6.8,30.16,NNW,331,0.0,0.0,67,0.00,,,0.00,WUHU216DAVISWMX,2013-01-03 11:23:00,
2013-01-03 06:28:00,1.6,-6.8,30.16,NNW,331,0.0,0.0,67,0.00,,,0.00,WUHU216DAVISWMX,2013-01-03 11:28:00,
2013-01-03 06:33:00,1.4,-7.0,30.16,NNW,331,0.0,0.0,67,0.00,,,0.00,WUHU216DAVISWMX,2013-01-03 11:33:00,
2013-01-03 06:38:00,1.1,-7.3,30.16,NNW,331,0.0,0.0,67,0.00,,,0.00,WUHU216DAVISWMX,2013-01-03 11:38:00,
2013-01-03 06:43:00,1.2,-6.9,30.16,NNW,331,0.0,0.0,68,0.00,,,0.00,WUHU216DAVISWMX,2013-01-03 11:43:00,
2013-01-03 06:48:00,1.0,-7.0,30.17,NNW,331,0.0,0.0,68,0.00,,,0.00,WUHU216DAVISWMX,2013-01-03 11:48:00,
2013-01-03 06:53:00,1.0,-7.0,30.17,NNW,331,0.0,0.0,68,0.00,,,0.00,WUHU216DAVISWMX,2013-01-03 11:53:00,
2013-01-03 06:58:00,0.9,-6.8,30.17,NNW,331,0.0,0.0,69,0.00,,,0.00,WUHU216DAVISWMX,2013-01-03 11:58:00,
2013-01-03 07:03:00,0.7,-7.3,30.17,NNW,331,0.0,0.0,68,0.00,,,0.00,WUHU216DAVISWMX,2013-01-03 12:03:00,
2013-01-03 07:08:00,0.6,-7.1,30.17,NNW,331,0.0,0.0,69,0.00,,,0.00,WUHU216DAVISWMX,2013-01-03 12:08:00,
2013-01-03 07:13:00,0.4,-7.3,30.17,NNW,331,0.0,0.0,69,0.00,,,0.00,WUHU216DAVISWMX,2013-01-03 12:13:00,
2013-01-03 07:18:00,0.5,-7.2,30.17,NNW,331,0.0,0.0,69,0.00,,,0.00,WUHU216DAVISWMX,2013-01-03 12:18:00,
2013-01-03 07:23:00,0.2,-7.5,30.16,NNW,331,0.0,0.0,69,0.00,,,0.00,WUHU216DAVISWMX,2013-01-03 12:23:00,
2013-01-03 07:28:00,0.0,-7.7,30.16,NNW,331,0.0,0.0,69,0.00,,,0.00,WUHU216DAVISWMX,2013-01-03 12:28:00,
2013-01-03 07:33:00,0.1,-7.3,30.16,NNW,331,0.0,0.0,70,0.00,,,0.00,WUHU216DAVISWMX,2013-01-03 12:33:00,
2013-01-03 07:38:00,0.2,-7.2,30.17,NNW,331,0.0,0.0,70,0.00,,,0.00,WUHU216DAVISWMX,2013-01-03 12:38:00,
2013-01-03 07:43:00,0.3,-7.1,30.16,NNW,331,0.0,0.0,70,0.00,,,0.00,WUHU216DAVISWMX,2013-01-03 12:43:00,
2013-01-03 07:48:00,0.2,-7.2,30.16,NNW,331,0.0,0.0,70,0.00,,,0.00,WUHU216DAVISWMX,2013-01-03 12:48:00,
2013-01-03 07:53:00,0.3,-7.1,30.16,NNW,334,0.0,0.0,70,0.00,,,0.00,WUHU216DAVISWMX,2013-01-03 12:53:00,
2013-01-03 07:58:00,0.4,-7.0,30.16,NNW,334,0.0,0.0,70,0.00,,,0.00,WUHU216DAVISWMX,2013-01-03 12:58:00,
2013-01-03 08:03:00,0.4,-6.7,30.15,NNW,334,0.0,0.0,71,0.00,,,0.00,WUHU216DAVISWMX,2013-01-03 13:03:00,
2013-01-03 08:08:00,0.6,-6.5,30.15,NNW,334,0.0,0.0,71,0.00,,,0.00,WUHU216DAVISWMX,2013-01-03 13:08:00,
2013-01-03 08:13:00,0.5,-6.9,30.15,NNW,334,0.0,0.0,70,0.00,,,0.00,WUHU216DAVISWMX,2013-01-03 13:13:00,
2013-01-03 08:18:00,0.7,-6.7,30.14,NNW,334,0.0,0.0,70,0.00,,,0.00,WUHU216DAVISWMX,2013-01-03 13:18:00,
2013-01-03 08:23:00,0.9,-6.0,30.14,NNW,334,0.0,0.0,72,0.00,,,0.00,WUHU216DAVISWMX,2013-01-03 13:23:00,
2013-01-03 08:28:00,1.3,-5.6,30.14,NNW,334,0.0,0.0,72,0.00,,,0.00,WUHU216DAVISWMX,2013-01-03 13:28:00,
2013-01-03 08:33:00,1.7,-4.9,30.13,NNW,334,0.0,0.0,73,0.00,,,0.00,WUHU216DAVISWMX,2013-01-03 13:33:00,
2013-01-03 08:38:00,2.3,-4.6,30.13,NNW,334,0.0,0.0,72,0.00,,,0.00,WUHU216DAVISWMX,2013-01-03 13:38:00,
2013-01-03 08:43:00,2.6,-4.3,30.13,NNW,334,0.0,0.0,72,0.00,,,0.00,WUHU216DAVISWMX,2013-01-03 13:43:00,
2013-01-03 08:48:00,3.1,-3.8,30.13,NNW,334,0.0,0.0,72,0.00,,,0.00,WUHU216DAVISWMX,2013-01-03 13:48:00,
2013-01-03 08:53:00,3.6,-3.4,30.13,NNW,334,0.0,0.0,72,0.00,,,0.00,WUHU216DAVISWMX,2013-01-03 13:53:00,
2013-01-03 08:58:00,4.2,-3.1,30.13,NNW,334,0.0,0.0,71,0.00,,,0.00,WUHU216DAVISWMX,2013-01-03 13:58:00,
2013-01-03 09:03:00,4.7,-2.3,30.13,NNW,334,0.0,0.0,72,0.00,,,0.00,WUHU216DAVISWMX,2013-01-03 14:03:00,
2013-01-03 09:08:00,5.2,-2.1,30.13,NNW,334,0.0,0.0,71,0.00,,,0.00,WUHU216DAVISWMX,2013-01-03 14:08:00,
2013-01-03 09:13:00,5.9,-1.4,30.13,NNW,334,0.0,0.0,71,0.00,,,0.00,WUHU216DAVISWMX,2013-01-03 14:13:00,
2013-01-03 09:18:00,6.4,-1.0,30.13,NNW,334,0.0,0.0,71,0.00,,,0.00,WUHU216DAVISWMX,2013-01-03 14:18:00,
2013-01-03 09:23:00,7.0,-0.4,30.13,NNW,334,0.0,0.0,71,0.00,,,0.00,WUHU216DAVISWMX,2013-01-03 14:23:00,
2013-01-03 09:28:00,7.7,0.3,30.13,NNW,334,0.0,0.0,71,0.00,,,0.00,WUHU216DAVISWMX,2013-01-03 14:28:00,
2013-01-03 09:33:00,8.4,0.7,30.14,NNW,334,0.0,0.0,70,0.00,,,0.00,WUHU216DAVISWMX,2013-01-03 14:33:00,
2013-01-03 09:38:00,8.9,1.2,30.14,NNW,334,0.0,0.0,70,0.00,,,0.00,WUHU216DAVISWMX,2013-01-03 14:38:00,
2013-01-03 09:44:00,9.6,1.5,30.14,NNW,334,0.0,0.0,69,0.00,,,0.00,WUHU216DAVISWMX,2013-01-03 14:44:00,
2013-01-03 09:49:00,10.2,2.4,30.14,NNW,334,0.0,0.0,70,0.00,,,0.00,WUHU216DAVISWMX,2013-01-03 14:49:00,
2013-01-03 09:54:00,11.0,1.9,30.13,NNW,333,1.0,3.0,66,0.00,,,0.00,WUHU216DAVISWMX,2013-01-03 14:54:00,
2013-01-03 09:59:00,11.7,1.9,30.13,NNW,333,0.0,3.0,64,0.00,,,0.00,WUHU216DAVISWMX,2013-01-03 14:59:00,
2013-01-03 10:04:00,12.0,1.9,30.13,NNW,334,1.0,3.0,63,0.00,,,0.00,WUHU216DAVISWMX,2013-01-03 15:04:00,
2013-01-03 10:09:00,12.5,2.3,30.13,NNW,334,0.0,3.0,63,0.00,,,0.00,WUHU216DAVISWMX,2013-01-03 15:09:00,
2013-01-03 10:14:00,13.0,2.5,30.13,NNW,334,1.0,2.0,62,0.00,,,0.00,WUHU216DAVISWMX,2013-01-03 15:14:00,
2013-01-03 10:19:00,13.5,2.6,30.13,NNW,334,1.0,1.0,61,0.00,,,0.00,WUHU216DAVISWMX,2013-01-03 15:19:00,
2013-01-03 10:24:00,13.8,2.5,30.13,NNW,334,0.0,2.0,60,0.00,,,0.00,WUHU216DAVISWMX,2013-01-03 15:24:00,
2013-01-03 10:29:00,14.4,1.6,30.12,North,352,2.0,2.0,56,0.00,,,0.00,WUHU216DAVISWMX,2013-01-03 15:29:00,
2013-01-03 10:34:00,15.0,1.3,30.12,NNE,18,1.0,4.0,54,0.00,,,0.00,WUHU216DAVISWMX,2013-01-03 15:34:00,
2013-01-03 10:39:00,15.5,1.8,30.12,NNW,342,1.0,4.0,54,0.00,,,0.00,WUHU216DAVISWMX,2013-01-03 15:39:00,
2013-01-03 10:44:00,15.7,0.7,30.12,NNE,24,1.0,4.0,51,0.00,,,0.00,WUHU216DAVISWMX,2013-01-03 15:44:00,
2013-01-03 10:49:00,16.1,1.9,30.12,NNE,14,2.0,4.0,53,0.00,,,0.00,WUHU216DAVISWMX,2013-01-03 15:49:00,
2013-01-03 10:54:00,16.2,2.0,30.12,NNE,14,4.0,4.0,53,0.00,,,0.00,WUHU216DAVISWMX,2013-01-03 15:54:00,
2013-01-03 10:59:00,16.8,1.3,30.12,NNE,14,1.0,4.0,50,0.00,,,0.00,WUHU216DAVISWMX,2013-01-03 15:59:00,
2013-01-03 11:04:00,16.8,2.2,30.11,East,88,2.0,4.0,52,0.00,,,0.00,WUHU216DAVISWMX,2013-01-03 16:04:00,
2013-01-03 11:09:00,16.9,1.8,30.11,NNE,31,2.0,2.0,51,0.00,,,0.00,WUHU216DAVISWMX,2013-01-03 16:09:00,
2013-01-03 11:14:00,17.3,2.2,30.11,North,356,2.0,3.0,51,0.00,,,0.00,WUHU216DAVISWMX,2013-01-03 16:14:00,
2013-01-03 11:19:00,17.6,2.5,30.11,North,356,2.0,3.0,51,0.00,,,0.00,WUHU216DAVISWMX,2013-01-03 16:19:00,
2013-01-03 11:24:00,18.1,2.9,30.11,NW,320,2.0,7.0,51,0.00,,,0.00,WUHU216DAVISWMX,2013-01-03 16:24:00,
2013-01-03 11:29:00,18.4,2.8,30.11,NW,308,2.0,7.0,50,0.00,,,0.00,WUHU216DAVISWMX,2013-01-03 16:29:00,
2013-01-03 11:34:00,18.7,2.6,30.10,NNW,329,3.0,6.0,49,0.00,,,0.00,WUHU216DAVISWMX,2013-01-03 16:34:00,
2013-01-03 11:39:00,19.0,2.4,30.10,NW,324,1.0,8.0,48,0.00,,,0.00,WUHU216DAVISWMX,2013-01-03 16:39:00,
2013-01-03 11:44:00,19.2,2.6,30.10,NW,315,2.0,8.0,48,0.00,,,0.00,WUHU216DAVISWMX,2013-01-03 16:44:00,
2013-01-03 11:49:00,19.5,2.9,30.10,WNW,302,2.0,9.0,48,0.00,,,0.00,WUHU216DAVISWMX,2013-01-03 16:49:00,
2013-01-03 11:54:00,19.7,3.5,30.10,NNW,333,2.0,9.0,49,0.00,,,0.00,WUHU216DAVISWMX,2013-01-03 16:54:00,
2013-01-03 11:59:00,19.8,3.2,30.10,NW,321,1.0,6.0,48,0.00,,,0.00,WUHU216DAVISWMX,2013-01-03 16:59:00,
2013-01-03 12:04:00,19.9,1.8,30.09,NNE,25,2.0,6.0,45,0.00,,,0.00,WUHU216DAVISWMX,2013-01-03 17:04:00,
2013-01-03 12:09:00,20.1,2.0,30.09,NNE,28,3.0,5.0,45,0.00,,,0.00,WUHU216DAVISWMX,2013-01-03 17:09:00,
2013-01-03 12:14:00,20.3,2.7,30.09,NNE,23,2.0,5.0,46,0.00,,,0.00,WUHU216DAVISWMX,2013-01-03 17:14:00,
2013-01-03 12:19:00,20.8,3.1,30.09,NNW,334,1.0,4.0,46,0.00,,,0.00,WUHU216DAVISWMX,2013-01-03 17:19:00,
2013-01-03 12:24:00,21.1,3.4,30.09,NNW,328,1.0,5.0,46,0.00,,,0.00,WUHU216DAVISWMX,2013-01-03 17:24:00,
2013-01-03 12:29:00,21.3,4.6,30.09,NW,305,0.0,5.0,48,0.00,,,0.00,WUHU216DAVISWMX,2013-01-03 17:29:00,
2013-01-03 12:34:00,21.5,5.2,30.08,NW,305,1.0,3.0,49,0.00,,,0.00,WUHU216DAVISWMX,2013-01-03 17:34:00,
2013-01-03 12:39:00,21.7,4.9,30.08,NNW,329,1.0,5.0,48,0.00,,,0.00,WUHU216DAVISWMX,2013-01-03 17:39:00,
2013-01-03 12:44:00,21.7,5.4,30.08,NNW,328,1.0,5.0,49,0.00,,,0.00,WUHU216DAVISWMX,2013-01-03 17:44:00,
2013-01-03 12:49:00,21.7,4.4,30.08,NNW,333,3.0,4.0,47,0.00,,,0.00,WUHU216DAVISWMX,2013-01-03 17:49:00,
2013-01-03 12:54:00,21.9,4.2,30.07,NW,323,2.0,5.0,46,0.00,,,0.00,WUHU216DAVISWMX,2013-01-03 17:54:00,
2013-01-03 12:59:00,22.0,4.2,30.07,NNW,335,2.0,6.0,46,0.00,,,0.00,WUHU216DAVISWMX,2013-01-03 17:59:00,
2013-01-03 13:04:00,22.1,4.3,30.07,NNW,333,1.0,6.0,46,0.00,,,0.00,WUHU216DAVISWMX,2013-01-03 18:04:00,
2013-01-03 13:09:00,22.1,3.3,30.06,NNW,339,1.0,4.0,44,0.00,,,0.00,WUHU216DAVISWMX,2013-01-03 18:09:00,
2013-01-03 13:14:00,22.1,3.3,30.06,North,4,0.0,3.0,44,0.00,,,0.00,WUHU216DAVISWMX,2013-01-03 18:14:00,
2013-01-03 13:19:00,22.2,2.9,30.06,North,5,0.0,4.0,43,0.00,,,0.00,WUHU216DAVISWMX,2013-01-03 18:19:00,
2013-01-03 13:24:00,22.4,4.6,30.06,NNW,343,0.0,4.0,46,0.00,,,0.00,WUHU216DAVISWMX,2013-01-03 18:24:00,
2013-01-03 13:29:00,22.5,3.7,30.06,NNE,17,0.0,4.0,44,0.00,,,0.00,WUHU216DAVISWMX,2013-01-03 18:29:00,
2013-01-03 13:34:00,22.7,4.9,30.06,NNW,336,3.0,4.0,46,0.00,,,0.00,WUHU216DAVISWMX,2013-01-03 18:34:00,
2013-01-03 13:39:00,22.9,4.6,30.06,NNW,329,0.0,5.0,45,0.00,,,0.00,WUHU216DAVISWMX,2013-01-03 18:39:00,
2013-01-03 13:44:00,23.0,4.2,30.06,West,281,3.0,5.0,44,0.00,,,0.00,WUHU216DAVISWMX,2013-01-03 18:44:00,
2013-01-03 13:49:00,23.0,3.7,30.06,SSE,164,1.0,4.0,43,0.00,,,0.00,WUHU216DAVISWMX,2013-01-03 18:49:00,
2013-01-03 13:54:00,23.1,3.7,30.06,NW,316,0.0,5.0,43,0.00,,,0.00,WUHU216DAVISWMX,2013-01-03 18:54:00,
2013-01-03 13:59:00,23.2,4.9,30.06,NW,312,3.0,5.0,45,0.00,,,0.00,WUHU216DAVISWMX,2013-01-03 18:59:00,
2013-01-03 14:04:00,23.3,3.9,30.06,NW,306,4.0,7.0,43,0.00,,,0.00,WUHU216DAVISWMX,2013-01-03 19:04:00,
2013-01-03 14:09:00,23.4,4.5,30.06,NNW,328,5.0,7.0,44,0.00,,,0.00,WUHU216DAVISWMX,2013-01-03 19:09:00,
2013-01-03 14:14:00,23.4,3.5,30.06,NNW,336,2.0,6.0,42,0.00,,,0.00,WUHU216DAVISWMX,2013-01-03 19:14:00,
2013-01-03 14:57:00,22.6,4.3,30.06,NNW,327,1.0,5.0,45,0.00,,,0.00,WUHU216DAVISWMX,2013-01-03 19:57:00,
2013-01-03 15:02:00,22.6,4.3,30.06,NNW,331,1.0,5.0,45,0.00,,,0.00,WUHU216DAVISWMX,2013-01-03 20:02:00,
2013-01-03 15:07:00,22.6,4.8,30.06,NNW,332,4.0,5.0,46,0.00,,,0.00,WUHU216DAVISWMX,2013-01-03 20:07:00,
2013-01-03 15:12:00,22.6,4.8,30.06,NNW,333,1.0,5.0,46,0.00,,,0.00,WUHU216DAVISWMX,2013-01-03 20:12:00,
2013-01-03 15:17:00,22.5,5.2,30.06,WSW,241,2.0,5.0,47,0.00,,,0.00,WUHU216DAVISWMX,2013-01-03 20:17:00,
2013-01-03 15:22:00,22.6,5.8,30.05,West,259,4.0,5.0,48,0.00,,,0.00,WUHU216DAVISWMX,2013-01-03 20:22:00,
2013-01-03 15:27:00,22.4,5.6,30.05,WNW,286,0.0,5.0,48,0.00,,,0.00,WUHU216DAVISWMX,2013-01-03 20:27:00,
2013-01-03 15:32:00,22.2,6.3,30.06,WNW,288,4.0,4.0,50,0.00,,,0.00,WUHU216DAVISWMX,2013-01-03 20:32:00,
2013-01-03 15:37:00,22.3,5.9,30.06,WSW,237,2.0,5.0,49,0.00,,,0.00,WUHU216DAVISWMX,2013-01-03 20:37:00,
2013-01-03 15:42:00,22.3,6.8,30.06,WSW,249,2.0,5.0,51,0.00,,,0.00,WUHU216DAVISWMX,2013-01-03 20:42:00,
2013-01-03 15:47:00,22.3,6.8,30.06,WSW,250,0.0,4.0,51,0.00,,,0.00,WUHU216DAVISWMX,2013-01-03 20:47:00,
2013-01-03 15:52:00,22.2,7.6,30.06,WSW,250,0.0,2.0,53,0.00,,,0.00,WUHU216DAVISWMX,2013-01-03 20:52:00,
2013-01-03 15:57:00,22.0,7.4,30.06,WSW,249,0.0,2.0,53,0.00,,,0.00,WUHU216DAVISWMX,2013-01-03 20:57:00,
2013-01-03 16:02:00,21.9,7.8,30.06,West,279,3.0,4.0,54,0.00,,,0.00,WUHU216DAVISWMX,2013-01-03 21:02:00,
2013-01-03 16:07:00,21.8,7.7,30.06,SW,217,2.0,4.0,54,0.00,,,0.00,WUHU216DAVISWMX,2013-01-03 21:07:00,
2013-01-03 16:12:00,21.6,7.9,30.05,NNW,327,2.0,2.0,55,0.00,,,0.00,WUHU216DAVISWMX,2013-01-03 21:12:00,
2013-01-03 16:17:00,21.5,7.8,30.05,NNW,327,0.0,2.0,55,0.00,,,0.00,WUHU216DAVISWMX,2013-01-03 21:17:00,
2013-01-03 16:22:00,21.2,8.3,30.05,NNW,327,1.0,2.0,57,0.00,,,0.00,WUHU216DAVISWMX,2013-01-03 21:22:00,
2013-01-03 16:27:00,21.1,8.2,30.05,NNW,327,1.0,2.0,57,0.00,,,0.00,WUHU216DAVISWMX,2013-01-03 21:27:00,
2013-01-03 16:32:00,20.8,8.4,30.05,NNW,327,0.0,2.0,58,0.00,,,0.00,WUHU216DAVISWMX,2013-01-03 21:32:00,
2013-01-03 16:37:00,20.6,8.6,30.05,NNW,327,0.0,2.0,59,0.00,,,0.00,WUHU216DAVISWMX,2013-01-03 21:37:00,
2013-01-03 16:42:00,20.5,8.8,30.05,NW,326,1.0,2.0,60,0.00,,,0.00,WUHU216DAVISWMX,2013-01-03 21:42:00,
2013-01-03 16:47:00,20.1,8.8,30.05,NNW,327,1.0,2.0,61,0.00,,,0.00,WUHU216DAVISWMX,2013-01-03 21:47:00,
2013-01-03 16:52:00,19.8,8.6,30.05,NNW,327,1.0,2.0,61,0.00,,,0.00,WUHU216DAVISWMX,2013-01-03 21:52:00,
2013-01-03 16:57:00,19.7,8.5,30.06,NNW,327,2.0,2.0,61,0.00,,,0.00,WUHU216DAVISWMX,2013-01-03 21:57:00,
2013-01-03 17:02:00,19.5,8.3,30.06,NNW,327,1.0,2.0,61,0.00,,,0.00,WUHU216DAVISWMX,2013-01-03 22:02:00,
2013-01-03 17:07:00,19.3,8.1,30.06,NNW,327,1.0,2.0,61,0.00,,,0.00,WUHU216DAVISWMX,2013-01-03 22:07:00,
2013-01-03 17:12:00,19.3,8.1,30.06,NNW,327,0.0,2.0,61,0.00,,,0.00,WUHU216DAVISWMX,2013-01-03 22:12:00,
2013-01-03 17:17:00,19.1,8.3,30.06,NNW,327,0.0,1.0,62,0.00,,,0.00,WUHU216DAVISWMX,2013-01-03 22:17:00,
2013-01-03 17:22:00,18.9,8.1,30.06,NNW,327,0.0,0.0,62,0.00,,,0.00,WUHU216DAVISWMX,2013-01-03 22:22:00,
2013-01-03 17:27:00,18.8,8.3,30.06,NNW,327,0.0,0.0,63,0.00,,,0.00,WUHU216DAVISWMX,2013-01-03 22:27:00,
2013-01-03 17:32:00,18.5,8.0,30.06,NNW,327,0.0,0.0,63,0.00,,,0.00,WUHU216DAVISWMX,2013-01-03 22:32:00,
2013-01-03 17:37:00,18.3,7.5,30.05,NNW,327,0.0,0.0,62,0.00,,,0.00,WUHU216DAVISWMX,2013-01-03 22:37:00,
2013-01-03 17:42:00,18.1,7.3,30.05,NNW,327,0.0,0.0,62,0.00,,,0.00,WUHU216DAVISWMX,2013-01-03 22:42:00,
2013-01-03 17:47:00,17.9,7.5,30.05,NNW,327,0.0,0.0,63,0.00,,,0.00,WUHU216DAVISWMX,2013-01-03 22:47:00,
2013-01-03 17:52:00,17.7,7.3,30.05,NNW,327,0.0,0.0,63,0.00,,,0.00,WUHU216DAVISWMX,2013-01-03 22:52:00,
2013-01-03 17:57:00,17.5,7.4,30.05,NNW,327,0.0,0.0,64,0.00,,,0.00,WUHU216DAVISWMX,2013-01-03 22:57:00,
2013-01-03 18:02:00,17.1,7.1,30.05,NNW,327,0.0,0.0,64,0.00,,,0.00,WUHU216DAVISWMX,2013-01-03 23:02:00,
2013-01-03 18:07:00,16.9,7.2,30.06,NNW,327,0.0,2.0,65,0.00,,,0.00,WUHU216DAVISWMX,2013-01-03 23:07:00,
2013-01-03 18:12:00,16.8,7.1,30.06,NNW,327,0.0,2.0,65,0.00,,,0.00,WUHU216DAVISWMX,2013-01-03 23:12:00,
2013-01-03 18:17:00,16.5,6.8,30.06,NNW,327,0.0,0.0,65,0.00,,,0.00,WUHU216DAVISWMX,2013-01-03 23:17:00,
2013-01-03 18:22:00,16.4,6.7,30.06,NNW,327,0.0,0.0,65,0.00,,,0.00,WUHU216DAVISWMX,2013-01-03 23:22:00,
2013-01-03 18:27:00,16.1,6.8,30.06,NNW,327,0.0,0.0,66,0.00,,,0.00,WUHU216DAVISWMX,2013-01-03 23:27:00,
2013-01-03 18:33:00,16.3,7.0,30.05,NNW,327,0.0,0.0,66,0.00,,,0.00,WUHU216DAVISWMX,2013-01-03 23:33:00,
2013-01-03 18:38:00,16.1,7.1,30.06,NNW,327,0.0,2.0,67,0.00,,,0.00,WUHU216DAVISWMX,2013-01-03 23:38:00,
2013-01-03 18:43:00,16.1,7.1,30.06,NNW,327,0.0,2.0,67,0.00,,,0.00,WUHU216DAVISWMX,2013-01-03 23:43:00,
2013-01-03 18:48:00,16.1,7.4,30.05,NNW,327,0.0,2.0,68,0.00,,,0.00,WUHU216DAVISWMX,2013-01-03 23:48:00,
2013-01-03 18:53:00,16.2,7.9,30.06,NNW,327,0.0,0.0,69,0.00,,,0.00,WUHU216DAVISWMX,2013-01-03 23:53:00,
2013-01-03 18:58:00,16.1,7.4,30.06,NNW,327,0.0,0.0,68,0.00,,,0.00,WUHU216DAVISWMX,2013-01-03 23:58:00,
2013-01-03 19:03:00,16.1,7.4,30.06,NNW,327,0.0,0.0,68,0.00,,,0.00,WUHU216DAVISWMX,2013-01-04 00:03:00,
2013-01-03 19:08:00,16.2,7.9,30.06,NNW,327,0.0,0.0,69,0.00,,,0.00,WUHU216DAVISWMX,2013-01-04 00:08:00,
2013-01-03 19:13:00,16.3,7.6,30.06,NNW,327,0.0,0.0,68,0.00,,,0.00,WUHU216DAVISWMX,2013-01-04 00:13:00,
2013-01-03 19:18:00,16.2,7.5,30.06,NNW,327,0.0,0.0,68,0.00,,,0.00,WUHU216DAVISWMX,2013-01-04 00:18:00,
2013-01-03 19:23:00,16.3,7.6,30.06,NNW,327,0.0,0.0,68,0.00,,,0.00,WUHU216DAVISWMX,2013-01-04 00:23:00,
2013-01-03 19:28:00,16.2,7.9,30.06,NNW,327,0.0,0.0,69,0.00,,,0.00,WUHU216DAVISWMX,2013-01-04 00:28:00,
2013-01-03 19:33:00,16.3,8.0,30.06,NNW,327,0.0,0.0,69,0.00,,,0.00,WUHU216DAVISWMX,2013-01-04 00:33:00,
2013-01-03 19:38:00,16.3,8.0,30.06,NNW,327,0.0,0.0,69,0.00,,,0.00,WUHU216DAVISWMX,2013-01-04 00:38:00,
2013-01-03 19:43:00,16.3,8.3,30.05,NNW,327,0.0,0.0,70,0.00,,,0.00,WUHU216DAVISWMX,2013-01-04 00:43:00,
2013-01-03 19:48:00,16.2,8.2,30.05,NNW,327,0.0,0.0,70,0.00,,,0.00,WUHU216DAVISWMX,2013-01-04 00:48:00,
2013-01-03 19:53:00,16.2,8.2,30.06,NNW,327,0.0,0.0,70,0.00,,,0.00,WUHU216DAVISWMX,2013-01-04 00:53:00,
2013-01-03 19:58:00,16.1,8.4,30.05,NNW,327,0.0,0.0,71,0.00,,,0.00,WUHU216DAVISWMX,2013-01-04 00:58:00,
2013-01-03 20:03:00,16.0,8.0,30.06,NNW,327,0.0,0.0,70,0.00,,,0.00,WUHU216DAVISWMX,2013-01-04 01:03:00,
2013-01-03 20:08:00,15.8,7.5,30.06,NNW,327,0.0,0.0,69,0.00,,,0.00,WUHU216DAVISWMX,2013-01-04 01:08:00,
2013-01-03 20:13:00,15.7,7.4,30.06,NNW,327,0.0,0.0,69,0.00,,,0.00,WUHU216DAVISWMX,2013-01-04 01:13:00,
2013-01-03 20:18:00,15.6,7.3,30.06,NNW,327,0.0,0.0,69,0.00,,,0.00,WUHU216DAVISWMX,2013-01-04 01:18:00,
2013-01-03 20:23:00,15.4,7.4,30.06,NNW,327,0.0,0.0,70,0.00,,,0.00,WUHU216DAVISWMX,2013-01-04 01:23:00,
2013-01-03 20:28:00,15.2,6.9,30.06,NNW,327,0.0,0.0,69,0.00,,,0.00,WUHU216DAVISWMX,2013-01-04 01:28:00,
2013-01-03 20:33:00,15.0,7.0,30.06,NNW,327,0.0,0.0,70,0.00,,,0.00,WUHU216DAVISWMX,2013-01-04 01:33:00,
2013-01-03 20:38:00,14.9,6.9,30.06,NNW,327,0.0,0.0,70,0.00,,,0.00,WUHU216DAVISWMX,2013-01-04 01:38:00,
2013-01-03 20:43:00,14.8,6.8,30.06,NNW,327,0.0,0.0,70,0.00,,,0.00,WUHU216DAVISWMX,2013-01-04 01:43:00,
2013-01-03 20:48:00,14.7,6.7,30.06,NNW,327,0.0,0.0,70,0.00,,,0.00,WUHU216DAVISWMX,2013-01-04 01:48:00,
2013-01-03 20:53:00,14.6,6.9,30.06,NNW,327,0.0,0.0,71,0.00,,,0.00,WUHU216DAVISWMX,2013-01-04 01:53:00,
2013-01-03 20:58:00,14.6,6.6,30.05,NNW,327,0.0,0.0,70,0.00,,,0.00,WUHU216DAVISWMX,2013-01-04 01:58:00,
2013-01-03 21:03:00,14.5,6.9,30.05,NNW,327,0.0,0.0,71,0.00,,,0.00,WUHU216DAVISWMX,2013-01-04 02:03:00,
2013-01-03 21:08:00,14.5,6.5,30.05,NNW,327,0.0,0.0,70,0.00,,,0.00,WUHU216DAVISWMX,2013-01-04 02:08:00,
2013-01-03 21:13:00,14.4,6.4,30.05,NNW,327,0.0,0.0,70,0.00,,,0.00,WUHU216DAVISWMX,2013-01-04 02:13:00,
2013-01-03 21:18:00,14.4,6.8,30.05,NNW,327,0.0,0.0,71,0.00,,,0.00,WUHU216DAVISWMX,2013-01-04 02:18:00,
2013-01-03 21:23:00,14.5,6.9,30.05,NNW,327,0.0,0.0,71,0.00,,,0.00,WUHU216DAVISWMX,2013-01-04 02:23:00,
2013-01-03 21:28:00,14.6,7.3,30.05,NNW,327,2.0,3.0,72,0.00,,,0.00,WUHU216DAVISWMX,2013-01-04 02:28:00,
2013-01-03 21:33:00,14.5,7.2,30.05,NNW,327,0.0,3.0,72,0.00,,,0.00,WUHU216DAVISWMX,2013-01-04 02:33:00,
2013-01-03 21:38:00,14.5,7.5,30.05,NNW,327,0.0,2.0,73,0.00,,,0.00,WUHU216DAVISWMX,2013-01-04 02:38:00,
2013-01-03 21:43:00,14.6,7.6,30.05,NNW,327,0.0,0.0,73,0.00,,,0.00,WUHU216DAVISWMX,2013-01-04 02:43:00,
2013-01-03 21:48:00,14.7,7.7,30.05,NNW,327,0.0,0.0,73,0.00,,,0.00,WUHU216DAVISWMX,2013-01-04 02:48:00,
2013-01-03 21:53:00,14.6,7.6,30.05,NNW,327,0.0,0.0,73,0.00,,,0.00,WUHU216DAVISWMX,2013-01-04 02:53:00,
2013-01-03 21:58:00,14.5,7.2,30.05,NNW,327,0.0,0.0,72,0.00,,,0.00,WUHU216DAVISWMX,2013-01-04 02:58:00,
2013-01-03 22:03:00,14.6,7.6,30.05,NNW,327,0.0,0.0,73,0.00,,,0.00,WUHU216DAVISWMX,2013-01-04 03:03:00,
2013-01-03 22:08:00,14.6,7.9,30.05,NNW,327,0.0,0.0,74,0.00,,,0.00,WUHU216DAVISWMX,2013-01-04 03:08:00,
2013-01-03 22:13:00,14.8,7.7,30.05,NNW,327,0.0,0.0,73,0.00,,,0.00,WUHU216DAVISWMX,2013-01-04 03:13:00,
2013-01-03 22:18:00,14.8,8.0,30.04,NNW,327,0.0,0.0,74,0.00,,,0.00,WUHU216DAVISWMX,2013-01-04 03:18:00,
2013-01-03 22:23:00,14.8,8.3,30.04,NNW,327,0.0,0.0,75,0.00,,,0.00,WUHU216DAVISWMX,2013-01-04 03:23:00,
2013-01-03 22:28:00,14.7,8.2,30.04,NNW,327,0.0,0.0,75,0.00,,,0.00,WUHU216DAVISWMX,2013-01-04 03:28:00,
2013-01-03 22:33:00,14.6,7.9,30.04,NNW,327,0.0,0.0,74,0.00,,,0.00,WUHU216DAVISWMX,2013-01-04 03:33:00,
2013-01-03 22:38:00,14.5,8.0,30.03,NNW,327,0.0,0.0,75,0.00,,,0.00,WUHU216DAVISWMX,2013-01-04 03:38:00,
2013-01-03 22:43:00,14.4,7.7,30.03,NNW,327,0.0,0.0,74,0.00,,,0.00,WUHU216DAVISWMX,2013-01-04 03:43:00,
2013-01-03 22:48:00,14.3,7.6,30.03,NNW,327,0.0,0.0,74,0.00,,,0.00,WUHU216DAVISWMX,2013-01-04 03:48:00,
2013-01-03 22:53:00,14.0,7.0,30.03,NNW,327,0.0,0.0,73,0.00,,,0.00,WUHU216DAVISWMX,2013-01-04 03:53:00,
2013-01-03 22:58:00,13.8,6.8,30.03,NNW,327,0.0,0.0,73,0.00,,,0.00,WUHU216DAVISWMX,2013-01-04 03:58:00,
2013-01-03 23:03:00,13.8,7.1,30.03,NNW,327,0.0,0.0,74,0.00,,,0.00,WUHU216DAVISWMX,2013-01-04 04:03:00,
2013-01-03 23:08:00,13.7,7.0,30.03,NNW,327,0.0,0.0,74,0.00,,,0.00,WUHU216DAVISWMX,2013-01-04 04:08:00,
2013-01-03 23:13:00,13.5,6.8,30.03,NNW,327,0.0,0.0,74,0.00,,,0.00,WUHU216DAVISWMX,2013-01-04 04:13:00,
2013-01-03 23:18:00,13.4,6.7,30.03,NNW,327,0.0,0.0,74,0.00,,,0.00,WUHU216DAVISWMX,2013-01-04 04:18:00,
2013-01-03 23:23:00,13.2,6.5,30.02,NNW,327,0.0,0.0,74,0.00,,,0.00,WUHU216DAVISWMX,2013-01-04 04:23:00,
2013-01-03 23:28:00,13.0,6.3,30.02,NNW,327,0.0,0.0,74,0.00,,,0.00,WUHU216DAVISWMX,2013-01-04 04:28:00,
2013-01-03 23:33:00,12.9,6.5,30.02,NNW,327,0.0,0.0,75,0.00,,,0.00,WUHU216DAVISWMX,2013-01-04 04:33:00,
2013-01-03 23:38:00,12.7,6.3,30.02,NNW,327,0.0,0.0,75,0.00,,,0.00,WUHU216DAVISWMX,2013-01-04 04:38:00,
2013-01-03 23:43:00,12.5,5.8,30.02,NNW,327,0.0,0.0,74,0.00,,,0.00,WUHU216DAVISWMX,2013-01-04 04:43:00,
2013-01-03 23:48:00,12.4,5.7,30.02,NNW,327,0.0,0.0,74,0.00,,,0.00,WUHU216DAVISWMX,2013-01-04 04:48:00,
2013-01-03 23:53:00,12.2,5.5,30.02,NNW,327,0.0,0.0,74,0.00,,,0.00,WUHU216DAVISWMX,2013-01-04 04:53:00,
2013-01-03 23:58:00,12.1,5.7,30.01,NNW,327,0.0,0.0,75,0.00,,,0.00,WUHU216DAVISWMX,2013-01-04 04:58:00,